sensor_id;sensor_type;location;lat;lon;timestamp;pressure;altitude;pressure_sealevel;temperature;humidity
56689;BME280;42565;53.342;-1.534;2023-05-16T00:02:24;99743.47;;;11.61;47.53
56689;BME280;42565;53.342;-1.534;2023-05-16T00:04:51;99740.40;;;11.36;48.59
56689;BME280;42565;53.342;-1.534;2023-05-16T00:07:18;99738.86;;;11.24;48.16
56689;BME280;42565;53.342;-1.534;2023-05-16T00:09:45;99740.83;;;11.66;48.26
56689;BME280;42565;53.342;-1.534;2023-05-16T00:12:12;99735.48;;;11.72;48.19
56689;BME280;42565;53.342;-1.534;2023-05-16T00:14:39;99735.05;;;11.48;48.07
56689;BME280;42565;53.342;-1.534;2023-05-16T00:17:06;99732.74;;;11.69;47.56
56689;BME280;42565;53.342;-1.534;2023-05-16T00:19:33;99735.17;;;11.93;46.64
56689;BME280;42565;53.342;-1.534;2023-05-16T00:21:59;99737.35;;;11.64;46.21
56689;BME280;42565;53.342;-1.534;2023-05-16T00:24:26;99732.52;;;12.27;45.52
56689;BME280;42565;53.342;-1.534;2023-05-16T00:26:53;99733.18;;;12.36;45.17
56689;BME280;42565;53.342;-1.534;2023-05-16T00:29:19;99737.49;;;12.11;45.18
56689;BME280;42565;53.342;-1.534;2023-05-16T00:31:46;99740.64;;;12.15;46.26
56689;BME280;42565;53.342;-1.534;2023-05-16T00:34:13;99739.91;;;11.72;47.66
56689;BME280;42565;53.342;-1.534;2023-05-16T00:36:40;99735.56;;;11.37;48.85
56689;BME280;42565;53.342;-1.534;2023-05-16T00:39:08;99738.74;;;11.67;49.12
56689;BME280;42565;53.342;-1.534;2023-05-16T00:41:35;99738.48;;;11.82;49.18
56689;BME280;42565;53.342;-1.534;2023-05-16T00:44:02;99737.27;;;11.62;49.66
56689;BME280;42565;53.342;-1.534;2023-05-16T00:46:29;99735.15;;;11.13;50.50
56689;BME280;42565;53.342;-1.534;2023-05-16T00:48:56;99733.60;;;11.42;49.93
56689;BME280;42565;53.342;-1.534;2023-05-16T00:51:23;99736.09;;;11.14;49.65
56689;BME280;42565;53.342;-1.534;2023-05-16T00:53:50;99733.86;;;11.33;49.79
56689;BME280;42565;53.342;-1.534;2023-05-16T00:56:17;99734.63;;;11.01;49.64
56689;BME280;42565;53.342;-1.534;2023-05-16T00:58:45;99735.08;;;11.39;49.56
56689;BME280;42565;53.342;-1.534;2023-05-16T01:01:12;99736.57;;;11.42;49.57
56689;BME280;42565;53.342;-1.534;2023-05-16T01:03:40;99735.89;;;11.39;49.81
56689;BME280;42565;53.342;-1.534;2023-05-16T01:06:08;99734.27;;;11.29;50.12
56689;BME280;42565;53.342;-1.534;2023-05-16T01:08:35;99730.10;;;11.39;50.28
56689;BME280;42565;53.342;-1.534;2023-05-16T01:11:16;99723.33;;;11.30;49.59
56689;BME280;42565;53.342;-1.534;2023-05-16T01:13:57;99719.79;;;11.35;50.06
56689;BME280;42565;53.342;-1.534;2023-05-16T01:16:32;99718.73;;;11.25;49.21
56689;BME280;42565;53.342;-1.534;2023-05-16T01:19:09;99718.25;;;11.08;50.41
56689;BME280;42565;53.342;-1.534;2023-05-16T01:21:47;99722.56;;;11.24;50.11
56689;BME280;42565;53.342;-1.534;2023-05-16T01:24:22;99726.02;;;10.74;51.06
56689;BME280;42565;53.342;-1.534;2023-05-16T01:26:53;99731.99;;;10.79;50.65
56689;BME280;42565;53.342;-1.534;2023-05-16T01:29:22;99732.01;;;10.61;50.30
56689;BME280;42565;53.342;-1.534;2023-05-16T01:31:49;99734.08;;;10.73;51.26
56689;BME280;42565;53.342;-1.534;2023-05-16T01:34:16;99731.43;;;10.66;50.60
56689;BME280;42565;53.342;-1.534;2023-05-16T01:36:49;99729.68;;;11.03;50.81
56689;BME280;42565;53.342;-1.534;2023-05-16T01:39:24;99727.65;;;10.60;51.89
56689;BME280;42565;53.342;-1.534;2023-05-16T01:41:56;99726.09;;;10.75;52.10
56689;BME280;42565;53.342;-1.534;2023-05-16T01:44:31;99724.75;;;10.57;52.25
56689;BME280;42565;53.342;-1.534;2023-05-16T01:47:02;99724.29;;;11.08;51.44
56689;BME280;42565;53.342;-1.534;2023-05-16T01:49:35;99731.81;;;10.88;52.31
56689;BME280;42565;53.342;-1.534;2023-05-16T01:52:09;99730.56;;;10.97;52.24
56689;BME280;42565;53.342;-1.534;2023-05-16T01:54:40;99731.90;;;10.45;53.01
56689;BME280;42565;53.342;-1.534;2023-05-16T01:57:09;99731.84;;;10.51;53.33
56689;BME280;42565;53.342;-1.534;2023-05-16T01:59:40;99727.96;;;10.59;52.66
56689;BME280;42565;53.342;-1.534;2023-05-16T02:02:07;99725.53;;;10.77;52.68
56689;BME280;42565;53.342;-1.534;2023-05-16T02:04:34;99726.34;;;10.74;52.37
56689;BME280;42565;53.342;-1.534;2023-05-16T02:07:01;99720.34;;;10.74;52.04
56689;BME280;42565;53.342;-1.534;2023-05-16T02:09:29;99715.05;;;10.13;52.88
56689;BME280;42565;53.342;-1.534;2023-05-16T02:11:55;99712.05;;;10.88;51.53
56689;BME280;42565;53.342;-1.534;2023-05-16T02:14:22;99709.73;;;10.39;51.90
56689;BME280;42565;53.342;-1.534;2023-05-16T02:16:49;99709.26;;;10.41;52.84
56689;BME280;42565;53.342;-1.534;2023-05-16T02:19:16;99710.98;;;10.51;51.72
56689;BME280;42565;53.342;-1.534;2023-05-16T02:21:43;99707.62;;;10.59;52.10
56689;BME280;42565;53.342;-1.534;2023-05-16T02:24:10;99711.56;;;10.38;52.75
56689;BME280;42565;53.342;-1.534;2023-05-16T02:26:37;99715.55;;;10.24;54.12
56689;BME280;42565;53.342;-1.534;2023-05-16T02:29:04;99718.09;;;10.12;55.15
56689;BME280;42565;53.342;-1.534;2023-05-16T02:31:32;99716.25;;;10.36;54.44
56689;BME280;42565;53.342;-1.534;2023-05-16T02:34:00;99717.65;;;10.14;55.71
56689;BME280;42565;53.342;-1.534;2023-05-16T02:36:27;99717.61;;;10.47;54.67
56689;BME280;42565;53.342;-1.534;2023-05-16T02:38:55;99717.18;;;10.24;55.09
56689;BME280;42565;53.342;-1.534;2023-05-16T02:41:21;99717.80;;;9.78;55.74
56689;BME280;42565;53.342;-1.534;2023-05-16T02:43:49;99717.63;;;10.62;55.33
56689;BME280;42565;53.342;-1.534;2023-05-16T02:46:24;99715.10;;;9.71;56.65
56689;BME280;42565;53.342;-1.534;2023-05-16T02:48:52;99713.47;;;9.72;57.28
56689;BME280;42565;53.342;-1.534;2023-05-16T02:51:20;99716.22;;;9.00;58.33
56689;BME280;42565;53.342;-1.534;2023-05-16T02:53:48;99716.61;;;9.81;57.62
56689;BME280;42565;53.342;-1.534;2023-05-16T02:56:16;99712.87;;;9.75;57.04
56689;BME280;42565;53.342;-1.534;2023-05-16T02:58:46;99712.57;;;9.54;58.06
56689;BME280;42565;53.342;-1.534;2023-05-16T03:01:14;99712.15;;;9.61;57.82
56689;BME280;42565;53.342;-1.534;2023-05-16T03:03:42;99714.06;;;9.57;58.11
56689;BME280;42565;53.342;-1.534;2023-05-16T03:06:08;99712.52;;;9.85;57.51
56689;BME280;42565;53.342;-1.534;2023-05-16T03:08:35;99719.29;;;9.10;58.97
56689;BME280;42565;53.342;-1.534;2023-05-16T03:11:03;99717.84;;;9.36;58.63
56689;BME280;42565;53.342;-1.534;2023-05-16T03:13:30;99721.72;;;9.43;58.20
56689;BME280;42565;53.342;-1.534;2023-05-16T03:15:57;99716.95;;;9.84;58.25
56689;BME280;42565;53.342;-1.534;2023-05-16T03:18:25;99719.03;;;9.18;58.87
56689;BME280;42565;53.342;-1.534;2023-05-16T03:20:51;99723.28;;;9.43;58.97
56689;BME280;42565;53.342;-1.534;2023-05-16T03:23:18;99718.23;;;8.77;58.86
56689;BME280;42565;53.342;-1.534;2023-05-16T03:25:46;99722.33;;;9.09;58.75
56689;BME280;42565;53.342;-1.534;2023-05-16T03:28:18;99721.43;;;9.02;59.09
56689;BME280;42565;53.342;-1.534;2023-05-16T03:30:45;99722.45;;;9.13;59.85
56689;BME280;42565;53.342;-1.534;2023-05-16T03:33:12;99721.52;;;9.26;59.12
56689;BME280;42565;53.342;-1.534;2023-05-16T03:35:40;99720.84;;;9.28;58.10
56689;BME280;42565;53.342;-1.534;2023-05-16T03:38:07;99714.71;;;8.96;58.76
56689;BME280;42565;53.342;-1.534;2023-05-16T03:40:35;99713.69;;;9.25;58.57
56689;BME280;42565;53.342;-1.534;2023-05-16T03:43:02;99709.26;;;10.23;57.48
56689;BME280;42565;53.342;-1.534;2023-05-16T03:45:30;99711.80;;;10.19;57.30
56689;BME280;42565;53.342;-1.534;2023-05-16T03:47:57;99715.92;;;9.45;57.81
56689;BME280;42565;53.342;-1.534;2023-05-16T03:50:24;99716.31;;;9.24;59.41
56689;BME280;42565;53.342;-1.534;2023-05-16T03:52:52;99714.49;;;9.46;59.45
56689;BME280;42565;53.342;-1.534;2023-05-16T03:55:19;99708.38;;;8.03;61.29
56689;BME280;42565;53.342;-1.534;2023-05-16T03:57:45;99707.86;;;8.78;61.25
56689;BME280;42565;53.342;-1.534;2023-05-16T04:00:13;99703.34;;;8.76;61.27
56689;BME280;42565;53.342;-1.534;2023-05-16T04:02:41;99703.79;;;8.57;62.27
56689;BME280;42565;53.342;-1.534;2023-05-16T04:05:09;99705.01;;;8.53;61.96
56689;BME280;42565;53.342;-1.534;2023-05-16T04:07:36;99712.52;;;9.00;60.92
56689;BME280;42565;53.342;-1.534;2023-05-16T04:10:04;99710.82;;;8.50;62.08
56689;BME280;42565;53.342;-1.534;2023-05-16T04:12:31;99715.10;;;8.84;61.47
56689;BME280;42565;53.342;-1.534;2023-05-16T04:14:59;99718.84;;;9.09;61.69
56689;BME280;42565;53.342;-1.534;2023-05-16T04:17:25;99716.21;;;8.66;60.90
56689;BME280;42565;53.342;-1.534;2023-05-16T04:19:52;99719.11;;;8.81;60.94
56689;BME280;42565;53.342;-1.534;2023-05-16T04:22:20;99720.47;;;8.90;61.23
56689;BME280;42565;53.342;-1.534;2023-05-16T04:24:47;99723.72;;;8.96;61.15
56689;BME280;42565;53.342;-1.534;2023-05-16T04:27:15;99723.53;;;8.90;61.42
56689;BME280;42565;53.342;-1.534;2023-05-16T04:29:42;99722.08;;;8.66;61.06
56689;BME280;42565;53.342;-1.534;2023-05-16T04:32:09;99728.44;;;8.65;61.68
56689;BME280;42565;53.342;-1.534;2023-05-16T04:34:36;99723.33;;;9.03;60.96
56689;BME280;42565;53.342;-1.534;2023-05-16T04:37:03;99728.74;;;8.45;62.27
56689;BME280;42565;53.342;-1.534;2023-05-16T04:39:30;99726.41;;;9.07;60.78
56689;BME280;42565;53.342;-1.534;2023-05-16T04:41:57;99734.38;;;8.67;61.50
56689;BME280;42565;53.342;-1.534;2023-05-16T04:44:24;99733.93;;;9.10;59.98
56689;BME280;42565;53.342;-1.534;2023-05-16T04:46:51;99731.66;;;9.16;59.05
56689;BME280;42565;53.342;-1.534;2023-05-16T04:49:17;99729.33;;;8.49;60.00
56689;BME280;42565;53.342;-1.534;2023-05-16T04:51:45;99738.35;;;9.31;59.03
56689;BME280;42565;53.342;-1.534;2023-05-16T04:54:13;99738.11;;;9.39;59.49
56689;BME280;42565;53.342;-1.534;2023-05-16T04:56:40;99743.91;;;9.49;59.28
56689;BME280;42565;53.342;-1.534;2023-05-16T04:59:08;99744.44;;;9.38;59.01
56689;BME280;42565;53.342;-1.534;2023-05-16T05:01:35;99742.27;;;9.48;59.50
56689;BME280;42565;53.342;-1.534;2023-05-16T05:04:01;99735.49;;;9.42;59.93
56689;BME280;42565;53.342;-1.534;2023-05-16T05:06:28;99738.06;;;9.31;58.74
56689;BME280;42565;53.342;-1.534;2023-05-16T05:08:55;99737.99;;;10.13;57.88
56689;BME280;42565;53.342;-1.534;2023-05-16T05:11:21;99736.92;;;9.26;57.80
56689;BME280;42565;53.342;-1.534;2023-05-16T05:13:48;99734.79;;;9.53;57.83
56689;BME280;42565;53.342;-1.534;2023-05-16T05:16:16;99732.36;;;9.31;58.09
56689;BME280;42565;53.342;-1.534;2023-05-16T05:18:43;99738.16;;;10.02;57.92
56689;BME280;42565;53.342;-1.534;2023-05-16T05:21:09;99738.89;;;9.72;56.99
56689;BME280;42565;53.342;-1.534;2023-05-16T05:23:36;99735.57;;;9.45;56.73
56689;BME280;42565;53.342;-1.534;2023-05-16T05:26:03;99742.15;;;9.93;56.47
56689;BME280;42565;53.342;-1.534;2023-05-16T05:28:30;99742.08;;;9.79;55.62
56689;BME280;42565;53.342;-1.534;2023-05-16T05:30:57;99742.00;;;9.69;56.66
56689;BME280;42565;53.342;-1.534;2023-05-16T05:33:26;99740.77;;;9.68;55.25
56689;BME280;42565;53.342;-1.534;2023-05-16T05:35:53;99742.04;;;9.46;56.03
56689;BME280;42565;53.342;-1.534;2023-05-16T05:38:20;99746.57;;;9.60;55.43
56689;BME280;42565;53.342;-1.534;2023-05-16T05:40:47;99749.04;;;9.26;57.36
56689;BME280;42565;53.342;-1.534;2023-05-16T05:43:14;99749.90;;;9.53;55.78
56689;BME280;42565;53.342;-1.534;2023-05-16T05:45:41;99759.06;;;9.88;55.13
56689;BME280;42565;53.342;-1.534;2023-05-16T05:48:09;99765.99;;;10.42;55.73
56689;BME280;42565;53.342;-1.534;2023-05-16T05:50:36;99768.05;;;9.76;55.56
56689;BME280;42565;53.342;-1.534;2023-05-16T05:53:04;99771.68;;;10.01;55.07
56689;BME280;42565;53.342;-1.534;2023-05-16T05:55:30;99770.78;;;9.66;55.59
56689;BME280;42565;53.342;-1.534;2023-05-16T05:57:57;99771.64;;;10.13;55.45
56689;BME280;42565;53.342;-1.534;2023-05-16T06:00:24;99771.82;;;10.14;54.52
56689;BME280;42565;53.342;-1.534;2023-05-16T06:02:51;99775.88;;;9.93;55.62
56689;BME280;42565;53.342;-1.534;2023-05-16T06:05:18;99779.34;;;10.16;54.37
56689;BME280;42565;53.342;-1.534;2023-05-16T06:07:45;99775.86;;;10.88;53.23
56689;BME280;42565;53.342;-1.534;2023-05-16T06:10:12;99778.24;;;10.92;52.81
56689;BME280;42565;53.342;-1.534;2023-05-16T06:12:38;99783.86;;;10.45;52.40
56689;BME280;42565;53.342;-1.534;2023-05-16T06:15:06;99788.63;;;10.62;52.31
56689;BME280;42565;53.342;-1.534;2023-05-16T06:17:33;99789.33;;;11.04;51.70
56689;BME280;42565;53.342;-1.534;2023-05-16T06:20:00;99790.53;;;10.53;51.84
56689;BME280;42565;53.342;-1.534;2023-05-16T06:22:27;99788.17;;;11.14;50.96
56689;BME280;42565;53.342;-1.534;2023-05-16T06:24:54;99788.55;;;11.30;51.28
56689;BME280;42565;53.342;-1.534;2023-05-16T06:27:20;99790.00;;;10.82;51.69
56689;BME280;42565;53.342;-1.534;2023-05-16T06:29:47;99794.93;;;10.87;52.39
56689;BME280;42565;53.342;-1.534;2023-05-16T06:32:14;99795.53;;;11.45;51.07
56689;BME280;42565;53.342;-1.534;2023-05-16T06:34:41;99798.01;;;10.69;52.33
56689;BME280;42565;53.342;-1.534;2023-05-16T06:37:08;99797.69;;;11.29;51.77
56689;BME280;42565;53.342;-1.534;2023-05-16T06:39:35;99797.89;;;10.84;52.43
56689;BME280;42565;53.342;-1.534;2023-05-16T06:42:03;99800.37;;;11.69;51.32
56689;BME280;42565;53.342;-1.534;2023-05-16T06:44:30;99806.95;;;11.37;51.73
56689;BME280;42565;53.342;-1.534;2023-05-16T06:46:57;99806.89;;;11.74;51.61
56689;BME280;42565;53.342;-1.534;2023-05-16T06:49:23;99808.53;;;11.78;51.10
56689;BME280;42565;53.342;-1.534;2023-05-16T06:51:50;99814.38;;;12.28;52.06
56689;BME280;42565;53.342;-1.534;2023-05-16T06:54:17;99815.48;;;11.59;49.80
56689;BME280;42565;53.342;-1.534;2023-05-16T06:56:44;99816.74;;;11.96;50.01
56689;BME280;42565;53.342;-1.534;2023-05-16T06:59:11;99818.45;;;12.39;49.20
56689;BME280;42565;53.342;-1.534;2023-05-16T07:01:38;99822.59;;;12.53;48.11
56689;BME280;42565;53.342;-1.534;2023-05-16T07:04:05;99825.41;;;12.92;46.58
56689;BME280;42565;53.342;-1.534;2023-05-16T07:06:33;99828.94;;;13.18;45.37
56689;BME280;42565;53.342;-1.534;2023-05-16T07:09:00;99832.92;;;13.13;46.55
56689;BME280;42565;53.342;-1.534;2023-05-16T07:11:27;99838.31;;;12.36;47.16
56689;BME280;42565;53.342;-1.534;2023-05-16T07:13:54;99835.44;;;12.05;46.53
56689;BME280;42565;53.342;-1.534;2023-05-16T07:16:20;99834.93;;;11.84;46.54
56689;BME280;42565;53.342;-1.534;2023-05-16T07:18:47;99839.15;;;12.81;45.67
56689;BME280;42565;53.342;-1.534;2023-05-16T07:21:14;99834.12;;;13.14;43.40
56689;BME280;42565;53.342;-1.534;2023-05-16T07:23:41;99831.81;;;13.36;46.45
56689;BME280;42565;53.342;-1.534;2023-05-16T07:26:08;99840.81;;;13.16;45.50
56689;BME280;42565;53.342;-1.534;2023-05-16T07:28:36;99837.22;;;13.51;44.11
56689;BME280;42565;53.342;-1.534;2023-05-16T07:31:02;99838.08;;;13.55;43.76
56689;BME280;42565;53.342;-1.534;2023-05-16T07:33:29;99835.07;;;14.14;44.30
56689;BME280;42565;53.342;-1.534;2023-05-16T07:35:56;99835.57;;;14.26;42.30
56689;BME280;42565;53.342;-1.534;2023-05-16T07:38:22;99829.24;;;13.65;43.00
56689;BME280;42565;53.342;-1.534;2023-05-16T07:40:49;99828.61;;;13.82;43.19
56689;BME280;42565;53.342;-1.534;2023-05-16T07:43:16;99826.63;;;13.72;42.56
56689;BME280;42565;53.342;-1.534;2023-05-16T07:45:43;99824.13;;;14.02;43.00
56689;BME280;42565;53.342;-1.534;2023-05-16T07:48:11;99830.06;;;14.12;41.45
56689;BME280;42565;53.342;-1.534;2023-05-16T07:50:37;99829.13;;;13.92;41.89
56689;BME280;42565;53.342;-1.534;2023-05-16T07:53:04;99826.66;;;14.20;42.33
56689;BME280;42565;53.342;-1.534;2023-05-16T07:55:32;99824.92;;;13.85;42.24
56689;BME280;42565;53.342;-1.534;2023-05-16T07:57:58;99823.50;;;13.75;42.65
56689;BME280;42565;53.342;-1.534;2023-05-16T08:00:26;99828.36;;;13.90;42.10
56689;BME280;42565;53.342;-1.534;2023-05-16T08:02:54;99833.80;;;14.35;42.59
56689;BME280;42565;53.342;-1.534;2023-05-16T08:05:21;99838.36;;;13.33;43.28
56689;BME280;42565;53.342;-1.534;2023-05-16T08:07:47;99836.69;;;14.07;42.70
56689;BME280;42565;53.342;-1.534;2023-05-16T08:10:15;99837.77;;;14.33;41.90
56689;BME280;42565;53.342;-1.534;2023-05-16T08:12:42;99839.95;;;14.57;42.57
56689;BME280;42565;53.342;-1.534;2023-05-16T08:15:09;99846.66;;;14.62;41.66
56689;BME280;42565;53.342;-1.534;2023-05-16T08:17:36;99842.93;;;14.45;41.64
56689;BME280;42565;53.342;-1.534;2023-05-16T08:20:03;99843.82;;;14.10;42.57
56689;BME280;42565;53.342;-1.534;2023-05-16T08:22:31;99844.78;;;13.58;43.01
56689;BME280;42565;53.342;-1.534;2023-05-16T08:24:58;99849.98;;;14.43;42.44
56689;BME280;42565;53.342;-1.534;2023-05-16T08:27:25;99847.79;;;14.84;42.14
56689;BME280;42565;53.342;-1.534;2023-05-16T08:29:53;99848.06;;;14.42;42.75
56689;BME280;42565;53.342;-1.534;2023-05-16T08:32:20;99848.88;;;14.52;42.89
56689;BME280;42565;53.342;-1.534;2023-05-16T08:34:48;99849.08;;;14.73;41.91
56689;BME280;42565;53.342;-1.534;2023-05-16T08:37:14;99844.93;;;14.77;43.89
56689;BME280;42565;53.342;-1.534;2023-05-16T08:39:41;99837.27;;;15.38;41.34
56689;BME280;42565;53.342;-1.534;2023-05-16T08:42:08;99834.48;;;15.75;41.34
56689;BME280;42565;53.342;-1.534;2023-05-16T08:44:34;99839.57;;;15.92;40.81
56689;BME280;42565;53.342;-1.534;2023-05-16T08:47:16;99833.09;;;16.27;39.14
56689;BME280;42565;53.342;-1.534;2023-05-16T08:49:46;99840.21;;;16.17;39.53
56689;BME280;42565;53.342;-1.534;2023-05-16T08:52:17;99838.57;;;15.81;40.25
56689;BME280;42565;53.342;-1.534;2023-05-16T08:54:45;99838.65;;;15.79;40.31
56689;BME280;42565;53.342;-1.534;2023-05-16T08:57:13;99835.60;;;15.74;40.07
56689;BME280;42565;53.342;-1.534;2023-05-16T08:59:41;99839.95;;;16.07;39.55
56689;BME280;42565;53.342;-1.534;2023-05-16T09:02:10;99831.92;;;16.14;39.19
56689;BME280;42565;53.342;-1.534;2023-05-16T09:04:39;99835.01;;;16.39;40.32
56689;BME280;42565;53.342;-1.534;2023-05-16T09:07:07;99836.13;;;15.11;40.50
56689;BME280;42565;53.342;-1.534;2023-05-16T09:09:34;99830.82;;;15.64;40.23
56689;BME280;42565;53.342;-1.534;2023-05-16T09:12:00;99831.50;;;15.72;39.23
56689;BME280;42565;53.342;-1.534;2023-05-16T09:14:27;99829.48;;;15.85;40.04
56689;BME280;42565;53.342;-1.534;2023-05-16T09:17:04;99834.92;;;15.89;41.03
56689;BME280;42565;53.342;-1.534;2023-05-16T09:19:36;99832.44;;;17.12;39.69
56689;BME280;42565;53.342;-1.534;2023-05-16T09:22:05;99828.91;;;16.98;38.12
56689;BME280;42565;53.342;-1.534;2023-05-16T09:24:32;99832.52;;;16.56;38.11
56689;BME280;42565;53.342;-1.534;2023-05-16T09:27:07;99838.33;;;16.76;37.62
56689;BME280;42565;53.342;-1.534;2023-05-16T09:29:34;99842.36;;;16.61;37.60
56689;BME280;42565;53.342;-1.534;2023-05-16T09:32:08;99838.13;;;16.33;37.80
56689;BME280;42565;53.342;-1.534;2023-05-16T09:34:37;99840.78;;;16.72;39.32
56689;BME280;42565;53.342;-1.534;2023-05-16T09:37:05;99839.77;;;16.31;39.07
56689;BME280;42565;53.342;-1.534;2023-05-16T09:39:32;99838.37;;;16.33;37.91
56689;BME280;42565;53.342;-1.534;2023-05-16T09:41:59;99838.95;;;16.81;37.50
56689;BME280;42565;53.342;-1.534;2023-05-16T09:44:26;99838.61;;;16.12;39.19
56689;BME280;42565;53.342;-1.534;2023-05-16T09:46:54;99835.06;;;15.48;41.95
56689;BME280;42565;53.342;-1.534;2023-05-16T09:49:21;99847.95;;;14.40;43.32
56689;BME280;42565;53.342;-1.534;2023-05-16T09:51:48;99853.81;;;14.67;43.83
56689;BME280;42565;53.342;-1.534;2023-05-16T09:54:16;99844.27;;;14.72;44.11
56689;BME280;42565;53.342;-1.534;2023-05-16T09:56:55;99851.90;;;14.68;44.85
56689;BME280;42565;53.342;-1.534;2023-05-16T09:59:22;99847.36;;;14.27;44.30
56689;BME280;42565;53.342;-1.534;2023-05-16T10:01:51;99846.28;;;15.31;43.44
56689;BME280;42565;53.342;-1.534;2023-05-16T10:04:18;99852.37;;;13.88;44.50
56689;BME280;42565;53.342;-1.534;2023-05-16T10:06:46;99850.58;;;14.24;45.27
56689;BME280;42565;53.342;-1.534;2023-05-16T10:09:17;99843.94;;;12.90;47.42
56689;BME280;42565;53.342;-1.534;2023-05-16T10:11:45;99841.65;;;14.34;47.03
56689;BME280;42565;53.342;-1.534;2023-05-16T10:14:17;99839.65;;;15.50;46.31
56689;BME280;42565;53.342;-1.534;2023-05-16T10:16:47;99836.57;;;16.10;43.11
56689;BME280;42565;53.342;-1.534;2023-05-16T10:19:16;99822.49;;;16.49;40.19
56689;BME280;42565;53.342;-1.534;2023-05-16T10:21:50;99824.74;;;16.77;39.45
56689;BME280;42565;53.342;-1.534;2023-05-16T10:24:23;99831.37;;;16.25;39.30
56689;BME280;42565;53.342;-1.534;2023-05-16T10:26:52;99832.03;;;16.78;38.66
56689;BME280;42565;53.342;-1.534;2023-05-16T10:29:19;99833.28;;;16.75;39.18
56689;BME280;42565;53.342;-1.534;2023-05-16T10:31:47;99833.89;;;16.30;39.18
56689;BME280;42565;53.342;-1.534;2023-05-16T10:34:15;99838.45;;;16.49;39.43
56689;BME280;42565;53.342;-1.534;2023-05-16T10:36:43;99845.58;;;15.94;40.44
56689;BME280;42565;53.342;-1.534;2023-05-16T10:39:12;99852.99;;;16.15;40.99
56689;BME280;42565;53.342;-1.534;2023-05-16T10:41:39;99857.64;;;15.47;42.13
56689;BME280;42565;53.342;-1.534;2023-05-16T10:44:12;99862.04;;;15.13;43.35
56689;BME280;42565;53.342;-1.534;2023-05-16T10:46:39;99854.87;;;14.82;42.28
56689;BME280;42565;53.342;-1.534;2023-05-16T10:49:19;99856.84;;;14.96;42.69
56689;BME280;42565;53.342;-1.534;2023-05-16T10:52:05;99856.16;;;14.79;43.66
56689;BME280;42565;53.342;-1.534;2023-05-16T10:54:34;99851.66;;;15.51;43.01
56689;BME280;42565;53.342;-1.534;2023-05-16T10:57:04;99846.27;;;15.26;42.92
56689;BME280;42565;53.342;-1.534;2023-05-16T10:59:40;99846.28;;;15.20;42.66
56689;BME280;42565;53.342;-1.534;2023-05-16T11:02:22;99842.74;;;15.74;42.16
56689;BME280;42565;53.342;-1.534;2023-05-16T11:04:50;99849.06;;;16.05;41.20
56689;BME280;42565;53.342;-1.534;2023-05-16T11:07:19;99848.11;;;15.71;40.06
56689;BME280;42565;53.342;-1.534;2023-05-16T11:10:02;99845.11;;;15.78;39.95
56689;BME280;42565;53.342;-1.534;2023-05-16T11:12:36;99840.98;;;15.19;40.38
56689;BME280;42565;53.342;-1.534;2023-05-16T11:15:18;99839.44;;;15.27;41.71
56689;BME280;42565;53.342;-1.534;2023-05-16T11:17:45;99847.93;;;16.37;40.72
56689;BME280;42565;53.342;-1.534;2023-05-16T11:20:25;99846.06;;;16.19;41.97
56689;BME280;42565;53.342;-1.534;2023-05-16T11:23:17;99835.93;;;16.21;38.38
56689;BME280;42565;53.342;-1.534;2023-05-16T11:25:45;99834.33;;;16.51;38.92
56689;BME280;42565;53.342;-1.534;2023-05-16T11:28:13;99833.35;;;16.52;38.73
56689;BME280;42565;53.342;-1.534;2023-05-16T11:30:42;99828.03;;;16.54;38.88
56689;BME280;42565;53.342;-1.534;2023-05-16T11:33:09;99837.28;;;16.38;38.93
56689;BME280;42565;53.342;-1.534;2023-05-16T11:35:37;99840.59;;;16.82;38.95
56689;BME280;42565;53.342;-1.534;2023-05-16T11:38:03;99838.73;;;16.82;39.02
56689;BME280;42565;53.342;-1.534;2023-05-16T11:40:31;99840.93;;;16.40;38.42
56689;BME280;42565;53.342;-1.534;2023-05-16T11:42:59;99840.56;;;16.44;38.79
56689;BME280;42565;53.342;-1.534;2023-05-16T11:45:27;99848.06;;;16.43;38.42
56689;BME280;42565;53.342;-1.534;2023-05-16T11:48:01;99843.57;;;15.80;39.82
56689;BME280;42565;53.342;-1.534;2023-05-16T11:50:29;99843.13;;;15.51;41.26
56689;BME280;42565;53.342;-1.534;2023-05-16T11:52:56;99845.59;;;16.75;40.77
56689;BME280;42565;53.342;-1.534;2023-05-16T11:55:25;99838.66;;;17.11;37.64
56689;BME280;42565;53.342;-1.534;2023-05-16T11:57:53;99831.58;;;17.92;37.83
56689;BME280;42565;53.342;-1.534;2023-05-16T12:00:22;99844.22;;;18.39;37.37
56689;BME280;42565;53.342;-1.534;2023-05-16T12:02:50;99842.31;;;18.38;35.99
56689;BME280;42565;53.342;-1.534;2023-05-16T12:05:18;99844.34;;;18.25;34.58
56689;BME280;42565;53.342;-1.534;2023-05-16T12:07:46;99843.01;;;18.74;35.38
56689;BME280;42565;53.342;-1.534;2023-05-16T12:10:15;99838.09;;;17.83;35.36
56689;BME280;42565;53.342;-1.534;2023-05-16T12:12:43;99849.28;;;17.49;36.48
56689;BME280;42565;53.342;-1.534;2023-05-16T12:15:11;99848.37;;;17.08;36.79
56689;BME280;42565;53.342;-1.534;2023-05-16T12:17:40;99852.59;;;17.30;37.88
56689;BME280;42565;53.342;-1.534;2023-05-16T12:20:09;99857.45;;;17.03;37.68
56689;BME280;42565;53.342;-1.534;2023-05-16T12:22:38;99854.57;;;17.25;37.67
56689;BME280;42565;53.342;-1.534;2023-05-16T12:25:24;99847.67;;;16.55;37.58
56689;BME280;42565;53.342;-1.534;2023-05-16T12:27:52;99852.33;;;17.73;38.24
56689;BME280;42565;53.342;-1.534;2023-05-16T12:30:21;99846.77;;;17.05;37.35
56689;BME280;42565;53.342;-1.534;2023-05-16T12:32:54;99845.68;;;17.94;36.70
56689;BME280;42565;53.342;-1.534;2023-05-16T12:35:21;99846.91;;;18.22;35.09
56689;BME280;42565;53.342;-1.534;2023-05-16T12:37:49;99855.94;;;18.45;35.88
56689;BME280;42565;53.342;-1.534;2023-05-16T12:40:16;99849.59;;;18.42;35.17
56689;BME280;42565;53.342;-1.534;2023-05-16T12:42:44;99844.35;;;18.75;34.76
56689;BME280;42565;53.342;-1.534;2023-05-16T12:45:15;99847.36;;;19.16;35.47
56689;BME280;42565;53.342;-1.534;2023-05-16T12:47:43;99844.97;;;17.74;35.63
56689;BME280;42565;53.342;-1.534;2023-05-16T12:50:11;99849.41;;;18.03;36.42
56689;BME280;42565;53.342;-1.534;2023-05-16T12:52:46;99851.13;;;17.41;36.98
56689;BME280;42565;53.342;-1.534;2023-05-16T12:55:14;99851.33;;;17.52;37.77
56689;BME280;42565;53.342;-1.534;2023-05-16T12:57:42;99850.84;;;17.43;38.06
56689;BME280;42565;53.342;-1.534;2023-05-16T13:00:10;99850.89;;;17.36;38.42